sensor_id;sensor_type;location;lat;lon;timestamp;P1;durP1;ratioP1;P2;durP2;ratioP2
78838;SDS011;68405;47.190;27.558;2023-04-25T00:00:08;10.00;;;6.70;;
78838;SDS011;68405;47.190;27.558;2023-04-25T00:02:58;11.00;;;7.20;;
78838;SDS011;68405;47.190;27.558;2023-04-25T00:05:27;8.90;;;7.30;;
78838;SDS011;68405;47.190;27.558;2023-04-25T00:07:57;12.50;;;7.60;;
78838;SDS011;68405;47.190;27.558;2023-04-25T00:10:26;16.20;;;7.70;;
78838;SDS011;68405;47.190;27.558;2023-04-25T00:12:55;12.70;;;7.70;;
78838;SDS011;68405;47.190;27.558;2023-04-25T00:15:25;12.70;;;7.70;;
78838;SDS011;68405;47.190;27.558;2023-04-25T00:17:54;10.90;;;6.90;;
78838;SDS011;68405;47.190;27.558;2023-04-25T00:20:23;11.50;;;6.60;;
78838;SDS011;68405;47.190;27.558;2023-04-25T00:22:52;11.40;;;7.40;;
78838;SDS011;68405;47.190;27.558;2023-04-25T00:25:21;14.90;;;7.50;;
78838;SDS011;68405;47.190;27.558;2023-04-25T00:27:50;11.10;;;8.20;;
78838;SDS011;68405;47.190;27.558;2023-04-25T00:30:19;11.30;;;6.50;;
78838;SDS011;68405;47.190;27.558;2023-04-25T00:32:49;9.50;;;6.40;;
78838;SDS011;68405;47.190;27.558;2023-04-25T00:35:18;12.40;;;6.70;;
78838;SDS011;68405;47.190;27.558;2023-04-25T00:37:48;7.90;;;6.40;;
78838;SDS011;68405;47.190;27.558;2023-04-25T00:40:17;9.20;;;6.80;;
78838;SDS011;68405;47.190;27.558;2023-04-25T00:42:46;8.70;;;6.10;;
78838;SDS011;68405;47.190;27.558;2023-04-25T00:45:15;9.80;;;6.50;;
78838;SDS011;68405;47.190;27.558;2023-04-25T00:47:44;9.30;;;7.10;;
78838;SDS011;68405;47.190;27.558;2023-04-25T00:50:14;9.60;;;6.70;;
78838;SDS011;68405;47.190;27.558;2023-04-25T00:52:43;9.70;;;6.50;;
78838;SDS011;68405;47.190;27.558;2023-04-25T00:55:13;9.60;;;7.10;;
78838;SDS011;68405;47.190;27.558;2023-04-25T00:57:42;12.70;;;6.80;;
78838;SDS011;68405;47.190;27.558;2023-04-25T01:00:12;14.40;;;6.80;;
78838;SDS011;68405;47.190;27.558;2023-04-25T01:02:42;13.10;;;8.00;;
78838;SDS011;68405;47.190;27.558;2023-04-25T01:05:12;10.90;;;7.10;;
78838;SDS011;68405;47.190;27.558;2023-04-25T01:07:41;9.60;;;6.20;;
78838;SDS011;68405;47.190;27.558;2023-04-25T01:10:10;11.20;;;6.90;;
78838;SDS011;68405;47.190;27.558;2023-04-25T01:12:39;11.70;;;7.10;;
78838;SDS011;68405;47.190;27.558;2023-04-25T01:15:09;9.00;;;7.10;;
78838;SDS011;68405;47.190;27.558;2023-04-25T01:17:38;8.50;;;6.80;;
78838;SDS011;68405;47.190;27.558;2023-04-25T01:20:10;11.10;;;7.00;;
78838;SDS011;68405;47.190;27.558;2023-04-25T01:22:41;10.60;;;7.10;;
78838;SDS011;68405;47.190;27.558;2023-04-25T01:25:10;13.70;;;7.30;;
78838;SDS011;68405;47.190;27.558;2023-04-25T01:27:40;10.50;;;6.80;;
78838;SDS011;68405;47.190;27.558;2023-04-25T01:30:10;13.50;;;7.80;;
78838;SDS011;68405;47.190;27.558;2023-04-25T01:32:39;12.50;;;7.40;;
78838;SDS011;68405;47.190;27.558;2023-04-25T01:35:10;11.50;;;6.70;;
78838;SDS011;68405;47.190;27.558;2023-04-25T01:37:39;8.30;;;7.00;;
78838;SDS011;68405;47.190;27.558;2023-04-25T01:40:09;11.10;;;7.20;;
78838;SDS011;68405;47.190;27.558;2023-04-25T01:42:41;14.30;;;6.70;;
78838;SDS011;68405;47.190;27.558;2023-04-25T01:45:11;11.10;;;6.80;;
78838;SDS011;68405;47.190;27.558;2023-04-25T01:47:40;11.60;;;7.00;;
78838;SDS011;68405;47.190;27.558;2023-04-25T01:50:11;12.00;;;7.30;;
78838;SDS011;68405;47.190;27.558;2023-04-25T01:52:40;10.60;;;7.30;;
78838;SDS011;68405;47.190;27.558;2023-04-25T01:55:09;9.30;;;6.20;;
78838;SDS011;68405;47.190;27.558;2023-04-25T01:57:38;10.50;;;6.10;;
78838;SDS011;68405;47.190;27.558;2023-04-25T02:00:09;13.00;;;7.00;;
78838;SDS011;68405;47.190;27.558;2023-04-25T02:02:39;12.20;;;6.60;;
78838;SDS011;68405;47.190;27.558;2023-04-25T02:05:08;10.50;;;7.00;;
78838;SDS011;68405;47.190;27.558;2023-04-25T02:07:37;9.80;;;6.10;;
78838;SDS011;68405;47.190;27.558;2023-04-25T02:10:07;13.10;;;6.90;;
78838;SDS011;68405;47.190;27.558;2023-04-25T02:12:37;9.90;;;6.40;;
78838;SDS011;68405;47.190;27.558;2023-04-25T02:15:07;13.80;;;7.30;;
78838;SDS011;68405;47.190;27.558;2023-04-25T02:17:37;9.70;;;6.00;;
78838;SDS011;68405;47.190;27.558;2023-04-25T02:20:07;12.10;;;6.70;;
78838;SDS011;68405;47.190;27.558;2023-04-25T02:22:38;11.30;;;5.60;;
78838;SDS011;68405;47.190;27.558;2023-04-25T02:25:08;8.90;;;6.70;;
78838;SDS011;68405;47.190;27.558;2023-04-25T02:27:38;12.30;;;7.00;;
78838;SDS011;68405;47.190;27.558;2023-04-25T02:30:08;10.40;;;6.20;;
78838;SDS011;68405;47.190;27.558;2023-04-25T02:32:38;9.20;;;5.80;;
78838;SDS011;68405;47.190;27.558;2023-04-25T02:35:08;9.70;;;6.40;;
78838;SDS011;68405;47.190;27.558;2023-04-25T02:37:37;14.10;;;6.80;;
78838;SDS011;68405;47.190;27.558;2023-04-25T02:40:08;10.80;;;6.50;;
78838;SDS011;68405;47.190;27.558;2023-04-25T02:42:38;9.90;;;6.80;;
78838;SDS011;68405;47.190;27.558;2023-04-25T02:45:08;11.60;;;6.70;;
78838;SDS011;68405;47.190;27.558;2023-04-25T02:47:38;9.90;;;6.30;;
78838;SDS011;68405;47.190;27.558;2023-04-25T02:50:08;10.90;;;6.50;;
78838;SDS011;68405;47.190;27.558;2023-04-25T02:52:38;12.10;;;7.30;;
78838;SDS011;68405;47.190;27.558;2023-04-25T02:55:08;11.60;;;6.80;;
78838;SDS011;68405;47.190;27.558;2023-04-25T02:57:37;8.50;;;6.00;;
78838;SDS011;68405;47.190;27.558;2023-04-25T03:00:08;8.60;;;6.90;;
78838;SDS011;68405;47.190;27.558;2023-04-25T03:02:38;13.90;;;6.50;;
78838;SDS011;68405;47.190;27.558;2023-04-25T03:05:08;13.90;;;7.20;;
78838;SDS011;68405;47.190;27.558;2023-04-25T03:07:37;10.80;;;6.80;;
78838;SDS011;68405;47.190;27.558;2023-04-25T03:10:07;7.50;;;6.20;;
78838;SDS011;68405;47.190;27.558;2023-04-25T03:12:37;9.90;;;6.00;;
78838;SDS011;68405;47.190;27.558;2023-04-25T03:15:07;12.70;;;6.50;;
78838;SDS011;68405;47.190;27.558;2023-04-25T03:17:36;10.10;;;6.00;;
78838;SDS011;68405;47.190;27.558;2023-04-25T03:20:07;9.70;;;5.40;;
78838;SDS011;68405;47.190;27.558;2023-04-25T03:22:37;10.80;;;5.90;;
78838;SDS011;68405;47.190;27.558;2023-04-25T03:25:08;10.90;;;5.50;;
78838;SDS011;68405;47.190;27.558;2023-04-25T03:27:37;7.40;;;5.10;;
78838;SDS011;68405;47.190;27.558;2023-04-25T03:30:07;11.70;;;6.30;;
78838;SDS011;68405;47.190;27.558;2023-04-25T03:32:37;8.40;;;5.10;;
78838;SDS011;68405;47.190;27.558;2023-04-25T03:35:07;9.20;;;6.20;;
78838;SDS011;68405;47.190;27.558;2023-04-25T03:37:36;9.90;;;6.30;;
78838;SDS011;68405;47.190;27.558;2023-04-25T03:40:08;9.40;;;5.90;;
78838;SDS011;68405;47.190;27.558;2023-04-25T03:42:38;7.60;;;5.30;;
78838;SDS011;68405;47.190;27.558;2023-04-25T03:45:07;9.00;;;5.40;;
78838;SDS011;68405;47.190;27.558;2023-04-25T03:47:37;9.30;;;5.50;;
78838;SDS011;68405;47.190;27.558;2023-04-25T03:50:07;10.10;;;6.20;;
78838;SDS011;68405;47.190;27.558;2023-04-25T03:52:37;8.70;;;5.50;;
78838;SDS011;68405;47.190;27.558;2023-04-25T03:55:07;10.40;;;6.20;;
78838;SDS011;68405;47.190;27.558;2023-04-25T03:57:36;9.80;;;5.90;;
78838;SDS011;68405;47.190;27.558;2023-04-25T04:00:07;10.50;;;5.90;;
78838;SDS011;68405;47.190;27.558;2023-04-25T04:02:37;12.60;;;5.90;;
78838;SDS011;68405;47.190;27.558;2023-04-25T04:05:08;10.80;;;6.40;;
78838;SDS011;68405;47.190;27.558;2023-04-25T04:07:37;12.30;;;6.50;;
78838;SDS011;68405;47.190;27.558;2023-04-25T04:10:10;10.00;;;5.70;;
78838;SDS011;68405;47.190;27.558;2023-04-25T04:12:39;6.10;;;4.90;;
78838;SDS011;68405;47.190;27.558;2023-04-25T04:15:09;9.60;;;5.60;;
78838;SDS011;68405;47.190;27.558;2023-04-25T04:17:39;12.40;;;5.30;;
78838;SDS011;68405;47.190;27.558;2023-04-25T04:20:09;8.10;;;5.80;;
78838;SDS011;68405;47.190;27.558;2023-04-25T04:22:38;8.50;;;5.80;;
78838;SDS011;68405;47.190;27.558;2023-04-25T04:25:08;11.30;;;5.40;;
78838;SDS011;68405;47.190;27.558;2023-04-25T04:27:38;12.20;;;5.80;;
78838;SDS011;68405;47.190;27.558;2023-04-25T04:30:09;10.70;;;5.30;;
78838;SDS011;68405;47.190;27.558;2023-04-25T04:32:39;14.30;;;5.80;;
78838;SDS011;68405;47.190;27.558;2023-04-25T04:35:09;11.50;;;5.00;;
78838;SDS011;68405;47.190;27.558;2023-04-25T04:37:38;11.70;;;4.70;;
78838;SDS011;68405;47.190;27.558;2023-04-25T04:40:08;9.40;;;4.70;;
78838;SDS011;68405;47.190;27.558;2023-04-25T04:42:38;11.80;;;4.70;;
78838;SDS011;68405;47.190;27.558;2023-04-25T04:45:09;10.40;;;4.70;;
78838;SDS011;68405;47.190;27.558;2023-04-25T04:47:39;8.10;;;4.70;;
78838;SDS011;68405;47.190;27.558;2023-04-25T04:50:09;9.40;;;3.90;;
78838;SDS011;68405;47.190;27.558;2023-04-25T04:52:38;8.40;;;3.60;;
78838;SDS011;68405;47.190;27.558;2023-04-25T04:55:08;4.90;;;4.20;;
78838;SDS011;68405;47.190;27.558;2023-04-25T04:57:37;13.10;;;4.10;;
78838;SDS011;68405;47.190;27.558;2023-04-25T05:00:08;8.20;;;4.10;;
78838;SDS011;68405;47.190;27.558;2023-04-25T05:02:38;8.90;;;3.70;;
78838;SDS011;68405;47.190;27.558;2023-04-25T05:05:08;7.20;;;3.50;;
78838;SDS011;68405;47.190;27.558;2023-04-25T05:07:37;7.90;;;3.60;;
78838;SDS011;68405;47.190;27.558;2023-04-25T05:10:08;4.80;;;2.90;;
78838;SDS011;68405;47.190;27.558;2023-04-25T05:12:37;6.70;;;4.10;;
78838;SDS011;68405;47.190;27.558;2023-04-25T05:15:07;8.70;;;4.30;;
78838;SDS011;68405;47.190;27.558;2023-04-25T05:17:37;6.70;;;4.40;;
78838;SDS011;68405;47.190;27.558;2023-04-25T05:20:07;7.70;;;4.00;;
78838;SDS011;68405;47.190;27.558;2023-04-25T05:22:37;8.80;;;4.40;;
78838;SDS011;68405;47.190;27.558;2023-04-25T05:25:08;8.20;;;4.70;;
78838;SDS011;68405;47.190;27.558;2023-04-25T05:27:38;9.00;;;4.00;;
78838;SDS011;68405;47.190;27.558;2023-04-25T05:30:08;10.70;;;4.00;;
78838;SDS011;68405;47.190;27.558;2023-04-25T05:32:37;7.60;;;3.90;;
78838;SDS011;68405;47.190;27.558;2023-04-25T05:35:08;6.20;;;4.40;;
78838;SDS011;68405;47.190;27.558;2023-04-25T05:37:37;8.20;;;4.50;;
78838;SDS011;68405;47.190;27.558;2023-04-25T05:40:07;7.60;;;4.40;;
78838;SDS011;68405;47.190;27.558;2023-04-25T05:42:37;7.70;;;4.20;;
78838;SDS011;68405;47.190;27.558;2023-04-25T05:45:07;7.60;;;3.70;;
78838;SDS011;68405;47.190;27.558;2023-04-25T05:47:37;9.50;;;3.80;;
78838;SDS011;68405;47.190;27.558;2023-04-25T05:50:07;9.10;;;4.00;;
78838;SDS011;68405;47.190;27.558;2023-04-25T05:52:37;8.90;;;4.20;;
78838;SDS011;68405;47.190;27.558;2023-04-25T05:55:06;5.50;;;3.60;;
78838;SDS011;68405;47.190;27.558;2023-04-25T05:57:36;13.10;;;4.30;;
78838;SDS011;68405;47.190;27.558;2023-04-25T06:00:09;6.60;;;3.60;;
78838;SDS011;68405;47.190;27.558;2023-04-25T06:02:39;10.60;;;3.90;;
78838;SDS011;68405;47.190;27.558;2023-04-25T06:05:09;6.60;;;3.70;;
78838;SDS011;68405;47.190;27.558;2023-04-25T06:07:38;7.00;;;3.70;;
78838;SDS011;68405;47.190;27.558;2023-04-25T06:10:09;9.30;;;4.30;;
78838;SDS011;68405;47.190;27.558;2023-04-25T06:12:38;7.50;;;3.40;;
78838;SDS011;68405;47.190;27.558;2023-04-25T06:15:08;8.10;;;3.90;;
78838;SDS011;68405;47.190;27.558;2023-04-25T06:17:37;7.30;;;3.70;;
78838;SDS011;68405;47.190;27.558;2023-04-25T06:20:08;10.70;;;4.10;;
78838;SDS011;68405;47.190;27.558;2023-04-25T06:22:38;9.50;;;3.40;;
78838;SDS011;68405;47.190;27.558;2023-04-25T06:25:08;10.80;;;4.20;;
78838;SDS011;68405;47.190;27.558;2023-04-25T06:27:38;7.10;;;3.50;;
78838;SDS011;68405;47.190;27.558;2023-04-25T06:30:08;7.50;;;3.90;;
78838;SDS011;68405;47.190;27.558;2023-04-25T06:32:39;9.60;;;3.50;;
78838;SDS011;68405;47.190;27.558;2023-04-25T06:35:09;10.40;;;3.80;;
78838;SDS011;68405;47.190;27.558;2023-04-25T06:37:38;8.10;;;4.20;;
78838;SDS011;68405;47.190;27.558;2023-04-25T06:40:08;7.10;;;3.60;;
78838;SDS011;68405;47.190;27.558;2023-04-25T06:42:38;7.20;;;3.30;;
78838;SDS011;68405;47.190;27.558;2023-04-25T06:45:08;14.60;;;4.70;;
78838;SDS011;68405;47.190;27.558;2023-04-25T06:47:38;6.50;;;4.40;;
78838;SDS011;68405;47.190;27.558;2023-04-25T06:50:08;8.00;;;5.20;;
78838;SDS011;68405;47.190;27.558;2023-04-25T06:52:38;9.80;;;4.30;;
78838;SDS011;68405;47.190;27.558;2023-04-25T06:55:08;8.60;;;5.00;;
78838;SDS011;68405;47.190;27.558;2023-04-25T06:57:38;9.10;;;5.10;;
78838;SDS011;68405;47.190;27.558;2023-04-25T07:00:08;7.10;;;4.50;;
78838;SDS011;68405;47.190;27.558;2023-04-25T07:02:39;6.20;;;4.70;;
78838;SDS011;68405;47.190;27.558;2023-04-25T07:05:10;8.60;;;4.50;;
78838;SDS011;68405;47.190;27.558;2023-04-25T07:07:40;10.60;;;5.10;;
78838;SDS011;68405;47.190;27.558;2023-04-25T07:10:09;10.00;;;5.00;;
78838;SDS011;68405;47.190;27.558;2023-04-25T07:12:39;7.20;;;4.50;;
78838;SDS011;68405;47.190;27.558;2023-04-25T07:15:09;7.20;;;4.40;;
78838;SDS011;68405;47.190;27.558;2023-04-25T07:17:38;12.10;;;5.10;;
78838;SDS011;68405;47.190;27.558;2023-04-25T07:20:08;7.80;;;4.50;;
78838;SDS011;68405;47.190;27.558;2023-04-25T07:22:38;7.90;;;4.70;;
78838;SDS011;68405;47.190;27.558;2023-04-25T07:25:09;10.80;;;4.50;;
78838;SDS011;68405;47.190;27.558;2023-04-25T07:27:38;6.70;;;4.40;;
78838;SDS011;68405;47.190;27.558;2023-04-25T07:30:08;6.70;;;4.20;;
78838;SDS011;68405;47.190;27.558;2023-04-25T07:32:39;10.20;;;4.80;;
78838;SDS011;68405;47.190;27.558;2023-04-25T07:35:09;12.00;;;4.50;;
78838;SDS011;68405;47.190;27.558;2023-04-25T07:37:38;6.00;;;4.40;;
78838;SDS011;68405;47.190;27.558;2023-04-25T07:40:08;7.00;;;4.50;;
78838;SDS011;68405;47.190;27.558;2023-04-25T07:42:38;8.30;;;4.80;;
78838;SDS011;68405;47.190;27.558;2023-04-25T07:45:08;10.00;;;5.00;;
78838;SDS011;68405;47.190;27.558;2023-04-25T07:47:38;7.80;;;4.70;;
78838;SDS011;68405;47.190;27.558;2023-04-25T07:50:09;9.10;;;4.70;;
78838;SDS011;68405;47.190;27.558;2023-04-25T07:52:39;9.40;;;4.60;;
78838;SDS011;68405;47.190;27.558;2023-04-25T07:55:09;9.40;;;4.70;;
78838;SDS011;68405;47.190;27.558;2023-04-25T07:57:38;7.00;;;4.30;;
78838;SDS011;68405;47.190;27.558;2023-04-25T08:00:09;7.90;;;4.10;;
78838;SDS011;68405;47.190;27.558;2023-04-25T08:02:40;7.10;;;4.60;;
78838;SDS011;68405;47.190;27.558;2023-04-25T08:05:09;5.80;;;4.20;;
78838;SDS011;68405;47.190;27.558;2023-04-25T08:07:41;9.70;;;4.50;;
78838;SDS011;68405;47.190;27.558;2023-04-25T08:10:10;7.30;;;4.40;;
78838;SDS011;68405;47.190;27.558;2023-04-25T08:12:40;8.30;;;4.50;;
78838;SDS011;68405;47.190;27.558;2023-04-25T08:15:09;9.50;;;4.50;;
78838;SDS011;68405;47.190;27.558;2023-04-25T08:17:40;8.70;;;5.10;;
78838;SDS011;68405;47.190;27.558;2023-04-25T08:20:12;7.20;;;4.40;;
78838;SDS011;68405;47.190;27.558;2023-04-25T08:22:41;7.80;;;4.60;;
78838;SDS011;68405;47.190;27.558;2023-04-25T08:25:11;10.00;;;4.40;;
78838;SDS011;68405;47.190;27.558;2023-04-25T08:27:40;10.40;;;4.90;;
78838;SDS011;68405;47.190;27.558;2023-04-25T08:30:10;8.60;;;5.10;;
78838;SDS011;68405;47.190;27.558;2023-04-25T08:32:40;6.70;;;4.80;;
78838;SDS011;68405;47.190;27.558;2023-04-25T08:35:09;10.70;;;5.20;;
78838;SDS011;68405;47.190;27.558;2023-04-25T08:37:39;8.80;;;5.20;;
78838;SDS011;68405;47.190;27.558;2023-04-25T08:40:09;9.30;;;5.00;;
78838;SDS011;68405;47.190;27.558;2023-04-25T08:42:42;9.30;;;6.20;;
78838;SDS011;68405;47.190;27.558;2023-04-25T08:45:13;7.50;;;5.50;;
78838;SDS011;68405;47.190;27.558;2023-04-25T08:47:43;9.50;;;5.90;;
78838;SDS011;68405;47.190;27.558;2023-04-25T08:50:16;10.30;;;5.90;;
78838;SDS011;68405;47.190;27.558;2023-04-25T08:52:46;10.40;;;5.90;;
78838;SDS011;68405;47.190;27.558;2023-04-25T08:55:19;7.70;;;4.90;;
78838;SDS011;68405;47.190;27.558;2023-04-25T08:57:50;9.30;;;5.10;;
78838;SDS011;68405;47.190;27.558;2023-04-25T09:00:22;9.60;;;6.30;;
78838;SDS011;68405;47.190;27.558;2023-04-25T09:02:53;8.50;;;6.00;;
78838;SDS011;68405;47.190;27.558;2023-04-25T09:05:24;8.20;;;5.40;;
78838;SDS011;68405;47.190;27.558;2023-04-25T09:07:56;9.80;;;5.40;;
78838;SDS011;68405;47.190;27.558;2023-04-25T09:10:28;9.70;;;5.50;;
78838;SDS011;68405;47.190;27.558;2023-04-25T09:13:06;7.80;;;5.70;;
78838;SDS011;68405;47.190;27.558;2023-04-25T09:15:47;8.50;;;6.20;;
78838;SDS011;68405;47.190;27.558;2023-04-25T09:18:24;9.00;;;5.90;;
78838;SDS011;68405;47.190;27.558;2023-04-25T09:20:55;7.20;;;5.10;;
78838;SDS011;68405;47.190;27.558;2023-04-25T09:23:26;10.40;;;5.40;;
78838;SDS011;68405;47.190;27.558;2023-04-25T09:25:56;7.30;;;5.00;;
78838;SDS011;68405;47.190;27.558;2023-04-25T09:28:26;6.30;;;5.70;;
78838;SDS011;68405;47.190;27.558;2023-04-25T09:30:56;7.80;;;5.30;;
78838;SDS011;68405;47.190;27.558;2023-04-25T09:33:31;6.90;;;5.70;;
78838;SDS011;68405;47.190;27.558;2023-04-25T09:36:03;8.60;;;5.60;;
78838;SDS011;68405;47.190;27.558;2023-04-25T09:38:39;8.30;;;7.10;;
78838;SDS011;68405;47.190;27.558;2023-04-25T09:41:10;7.90;;;6.80;;
78838;SDS011;68405;47.190;27.558;2023-04-25T09:43:40;8.90;;;8.00;;
78838;SDS011;68405;47.190;27.558;2023-04-25T09:46:17;8.70;;;7.60;;
78838;SDS011;68405;47.190;27.558;2023-04-25T09:48:49;9.80;;;8.00;;
78838;SDS011;68405;47.190;27.558;2023-04-25T09:51:21;10.30;;;8.50;;
78838;SDS011;68405;47.190;27.558;2023-04-25T09:53:55;14.60;;;11.10;;
78838;SDS011;68405;47.190;27.558;2023-04-25T09:56:24;14.40;;;11.00;;
78838;SDS011;68405;47.190;27.558;2023-04-25T09:59:00;13.20;;;11.30;;
78838;SDS011;68405;47.190;27.558;2023-04-25T10:01:30;12.80;;;9.70;;
78838;SDS011;68405;47.190;27.558;2023-04-25T10:04:00;13.10;;;10.60;;
78838;SDS011;68405;47.190;27.558;2023-04-25T10:06:31;17.10;;;13.10;;
78838;SDS011;68405;47.190;27.558;2023-04-25T10:09:03;17.70;;;13.40;;
78838;SDS011;68405;47.190;27.558;2023-04-25T10:11:35;19.00;;;15.00;;
78838;SDS011;68405;47.190;27.558;2023-04-25T10:14:05;19.20;;;14.50;;
78838;SDS011;68405;47.190;27.558;2023-04-25T10:16:35;19.90;;;14.60;;
78838;SDS011;68405;47.190;27.558;2023-04-25T10:19:06;21.80;;;19.00;;
78838;SDS011;68405;47.190;27.558;2023-04-25T10:21:36;21.20;;;17.60;;
78838;SDS011;68405;47.190;27.558;2023-04-25T10:24:16;20.20;;;17.90;;
78838;SDS011;68405;47.190;27.558;2023-04-25T10:26:47;23.70;;;19.10;;
78838;SDS011;68405;47.190;27.558;2023-04-25T10:29:22;24.50;;;20.70;;
78838;SDS011;68405;47.190;27.558;2023-04-25T10:31:53;19.60;;;16.80;;
78838;SDS011;68405;47.190;27.558;2023-04-25T10:34:37;21.50;;;18.50;;
78838;SDS011;68405;47.190;27.558;2023-04-25T10:37:11;23.10;;;18.20;;
78838;SDS011;68405;47.190;27.558;2023-04-25T10:39:41;18.60;;;16.10;;
78838;SDS011;68405;47.190;27.558;2023-04-25T10:42:11;23.10;;;16.50;;
78838;SDS011;68405;47.190;27.558;2023-04-25T10:44:40;25.00;;;17.40;;
78838;SDS011;68405;47.190;27.558;2023-04-25T10:50:08;22.30;;;16.30;;
78838;SDS011;68405;47.190;27.558;2023-04-25T10:55:08;21.00;;;16.10;;
78838;SDS011;68405;47.190;27.558;2023-04-25T10:57:38;18.90;;;15.00;;
78838;SDS011;68405;47.190;27.558;2023-04-25T11:00:10;23.60;;;20.20;;
78838;SDS011;68405;47.190;27.558;2023-04-25T11:02:43;23.90;;;20.30;;
78838;SDS011;68405;47.190;27.558;2023-04-25T11:05:18;25.60;;;20.40;;
78838;SDS011;68405;47.190;27.558;2023-04-25T11:07:51;22.50;;;18.00;;
78838;SDS011;68405;47.190;27.558;2023-04-25T11:10:26;22.80;;;19.40;;
78838;SDS011;68405;47.190;27.558;2023-04-25T11:12:56;26.60;;;17.20;;
78838;SDS011;68405;47.190;27.558;2023-04-25T11:15:27;21.40;;;16.20;;
78838;SDS011;68405;47.190;27.558;2023-04-25T11:17:56;20.90;;;14.80;;
78838;SDS011;68405;47.190;27.558;2023-04-25T11:20:25;19.40;;;15.20;;
78838;SDS011;68405;47.190;27.558;2023-04-25T11:22:56;17.90;;;13.60;;
78838;SDS011;68405;47.190;27.558;2023-04-25T11:25:27;15.70;;;13.60;;
78838;SDS011;68405;47.190;27.558;2023-04-25T11:27:57;17.60;;;13.60;;
78838;SDS011;68405;47.190;27.558;2023-04-25T11:30:28;15.10;;;11.70;;
78838;SDS011;68405;47.190;27.558;2023-04-25T11:32:58;12.60;;;10.30;;
78838;SDS011;68405;47.190;27.558;2023-04-25T11:35:27;12.20;;;9.90;;
78838;SDS011;68405;47.190;27.558;2023-04-25T11:37:56;12.50;;;10.30;;
78838;SDS011;68405;47.190;27.558;2023-04-25T11:40:26;14.30;;;12.10;;
78838;SDS011;68405;47.190;27.558;2023-04-25T11:42:59;14.00;;;10.90;;
78838;SDS011;68405;47.190;27.558;2023-04-25T11:45:28;13.00;;;10.90;;
78838;SDS011;68405;47.190;27.558;2023-04-25T11:47:58;14.50;;;10.70;;
78838;SDS011;68405;47.190;27.558;2023-04-25T11:50:29;13.20;;;10.30;;
78838;SDS011;68405;47.190;27.558;2023-04-25T11:52:58;13.10;;;10.60;;
78838;SDS011;68405;47.190;27.558;2023-04-25T11:55:27;16.30;;;10.50;;
78838;SDS011;68405;47.190;27.558;2023-04-25T11:57:59;15.00;;;9.80;;
78838;SDS011;68405;47.190;27.558;2023-04-25T12:00:29;15.20;;;10.70;;
78838;SDS011;68405;47.190;27.558;2023-04-25T12:02:58;14.90;;;10.10;;
78838;SDS011;68405;47.190;27.558;2023-04-25T12:05:30;15.30;;;10.60;;
78838;SDS011;68405;47.190;27.558;2023-04-25T12:10:44;15.00;;;11.10;;
78838;SDS011;68405;47.190;27.558;2023-04-25T12:13:20;13.80;;;11.10;;
78838;SDS011;68405;47.190;27.558;2023-04-25T12:15:50;14.80;;;11.10;;
78838;SDS011;68405;47.190;27.558;2023-04-25T12:18:22;13.50;;;10.30;;
78838;SDS011;68405;47.190;27.558;2023-04-25T12:20:54;12.50;;;9.80;;
78838;SDS011;68405;47.190;27.558;2023-04-25T12:23:27;13.30;;;9.60;;
78838;SDS011;68405;47.190;27.558;2023-04-25T12:25:57;12.80;;;10.20;;
78838;SDS011;68405;47.190;27.558;2023-04-25T12:28:26;14.00;;;10.40;;
78838;SDS011;68405;47.190;27.558;2023-04-25T12:30:58;10.90;;;9.60;;
78838;SDS011;68405;47.190;27.558;2023-04-25T12:33:29;14.70;;;9.90;;
78838;SDS011;68405;47.190;27.558;2023-04-25T12:36:00;15.20;;;11.50;;
78838;SDS011;68405;47.190;27.558;2023-04-25T12:38:36;16.80;;;11.10;;
78838;SDS011;68405;47.190;27.558;2023-04-25T12:41:06;15.40;;;11.50;;
78838;SDS011;68405;47.190;27.558;2023-04-25T12:43:36;12.70;;;10.00;;
78838;SDS011;68405;47.190;27.558;2023-04-25T12:46:06;13.50;;;9.20;;
78838;SDS011;68405;47.190;27.558;2023-04-25T12:48:35;13.10;;;9.70;;
78838;SDS011;68405;47.190;27.558;2023-04-25T12:51:05;13.20;;;10.00;;
78838;SDS011;68405;47.190;27.558;2023-04-25T12:53:34;14.90;;;9.60;;
78838;SDS011;68405;47.190;27.558;2023-04-25T12:56:05;12.10;;;9.60;;
78838;SDS011;68405;47.190;27.558;2023-04-25T12:58:35;10.90;;;8.90;;
78838;SDS011;68405;47.190;27.558;2023-04-25T13:01:04;15.30;;;10.30;;
78838;SDS011;68405;47.190;27.558;2023-04-25T13:03:34;12.20;;;8.60;;
78838;SDS011;68405;47.190;27.558;2023-04-25T13:06:04;13.10;;;9.30;;
78838;SDS011;68405;47.190;27.558;2023-04-25T13:08:34;10.20;;;9.30;;
78838;SDS011;68405;47.190;27.558;2023-04-25T13:11:04;16.30;;;10.50;;
78838;SDS011;68405;47.190;27.558;2023-04-25T13:13:33;10.60;;;9.00;;
78838;SDS011;68405;47.190;27.558;2023-04-25T13:16:03;13.70;;;9.80;;
78838;SDS011;68405;47.190;27.558;2023-04-25T13:18:32;13.70;;;8.80;;
78838;SDS011;68405;47.190;27.558;2023-04-25T13:21:02;12.50;;;9.50;;
78838;SDS011;68405;47.190;27.558;2023-04-25T13:23:31;10.70;;;9.20;;
78838;SDS011;68405;47.190;27.558;2023-04-25T13:26:00;12.70;;;9.50;;
78838;SDS011;68405;47.190;27.558;2023-04-25T13:28:29;12.00;;;10.10;;
78838;SDS011;68405;47.190;27.558;2023-04-25T13:30:58;12.20;;;9.40;;
78838;SDS011;68405;47.190;27.558;2023-04-25T13:33:27;12.80;;;10.20;;
78838;SDS011;68405;47.190;27.558;2023-04-25T13:35:57;12.60;;;9.70;;
78838;SDS011;68405;47.190;27.558;2023-04-25T13:38:26;14.70;;;9.00;;
78838;SDS011;68405;47.190;27.558;2023-04-25T13:40:55;10.10;;;8.20;;
78838;SDS011;68405;47.190;27.558;2023-04-25T13:43:24;12.60;;;8.80;;
78838;SDS011;68405;47.190;27.558;2023-04-25T13:45:54;21.60;;;11.10;;
78838;SDS011;68405;47.190;27.558;2023-04-25T13:48:23;14.90;;;9.60;;
78838;SDS011;68405;47.190;27.558;2023-04-25T13:50:52;13.00;;;8.90;;
78838;SDS011;68405;47.190;27.558;2023-04-25T13:53:21;12.50;;;8.90;;
78838;SDS011;68405;47.190;27.558;2023-04-25T13:55:51;14.40;;;9.40;;
78838;SDS011;68405;47.190;27.558;2023-04-25T13:58:20;14.40;;;9.60;;
78838;SDS011;68405;47.190;27.558;2023-04-25T14:00:49;17.20;;;10.00;;
78838;SDS011;68405;47.190;27.558;2023-04-25T14:03:18;13.40;;;9.70;;
78838;SDS011;68405;47.190;27.558;2023-04-25T14:05:47;12.00;;;8.70;;
78838;SDS011;68405;47.190;27.558;2023-04-25T14:08:16;9.30;;;8.20;;
78838;SDS011;68405;47.190;27.558;2023-04-25T14:10:45;11.70;;;8.70;;
78838;SDS011;68405;47.190;27.558;2023-04-25T14:13:15;13.20;;;8.80;;
78838;SDS011;68405;47.190;27.558;2023-04-25T14:15:44;13.70;;;9.00;;
78838;SDS011;68405;47.190;27.558;2023-04-25T14:18:13;11.90;;;8.90;;
78838;SDS011;68405;47.190;27.558;2023-04-25T14:20:42;13.90;;;8.80;;
78838;SDS011;68405;47.190;27.558;2023-04-25T14:23:12;12.80;;;9.00;;
78838;SDS011;68405;47.190;27.558;2023-04-25T14:25:41;13.70;;;9.40;;
78838;SDS011;68405;47.190;27.558;2023-04-25T14:28:10;11.60;;;8.60;;
78838;SDS011;68405;47.190;27.558;2023-04-25T14:30:39;13.30;;;9.30;;
78838;SDS011;68405;47.190;27.558;2023-04-25T14:33:08;17.30;;;10.90;;
78838;SDS011;68405;47.190;27.558;2023-04-25T14:35:37;13.50;;;9.50;;
78838;SDS011;68405;47.190;27.558;2023-04-25T14:38:06;15.80;;;10.80;;
78838;SDS011;68405;47.190;27.558;2023-04-25T14:40:35;14.70;;;9.70;;
78838;SDS011;68405;47.190;27.558;2023-04-25T14:43:05;17.20;;;9.90;;
78838;SDS011;68405;47.190;27.558;2023-04-25T14:45:34;16.10;;;10.20;;
78838;SDS011;68405;47.190;27.558;2023-04-25T14:48:03;13.50;;;10.60;;